sensor_id;sensor_type;location;lat;lon;timestamp;P1;durP1;ratioP1;P2;durP2;ratioP2
44987;SDS011;35735;52.226;21.254;2024-03-08T00:02:27;216.48;;;101.93;;
44987;SDS011;35735;52.226;21.254;2024-03-08T00:07:48;211.75;;;99.28;;
44987;SDS011;35735;52.226;21.254;2024-03-08T00:13:09;215.67;;;98.67;;
44987;SDS011;35735;52.226;21.254;2024-03-08T00:18:30;216.32;;;99.25;;
44987;SDS011;35735;52.226;21.254;2024-03-08T00:23:51;198.30;;;94.90;;
44987;SDS011;35735;52.226;21.254;2024-03-08T00:29:12;184.63;;;90.63;;
44987;SDS011;35735;52.226;21.254;2024-03-08T00:34:35;179.65;;;88.65;;
44987;SDS011;35735;52.226;21.254;2024-03-08T00:39:56;183.23;;;89.60;;
44987;SDS011;35735;52.226;21.254;2024-03-08T00:45:17;178.73;;;86.23;;
44987;SDS011;35735;52.226;21.254;2024-03-08T00:50:38;171.65;;;85.50;;
44987;SDS011;35735;52.226;21.254;2024-03-08T00:55:59;172.17;;;85.70;;
44987;SDS011;35735;52.226;21.254;2024-03-08T01:01:19;170.27;;;86.80;;
44987;SDS011;35735;52.226;21.254;2024-03-08T01:06:40;174.48;;;85.95;;
44987;SDS011;35735;52.226;21.254;2024-03-08T01:12:02;184.23;;;89.90;;
44987;SDS011;35735;52.226;21.254;2024-03-08T01:17:23;183.77;;;88.47;;
44987;SDS011;35735;52.226;21.254;2024-03-08T01:22:44;186.75;;;91.93;;
44987;SDS011;35735;52.226;21.254;2024-03-08T01:28:05;196.30;;;94.15;;
44987;SDS011;35735;52.226;21.254;2024-03-08T01:33:26;193.02;;;92.37;;
44987;SDS011;35735;52.226;21.254;2024-03-08T01:38:47;207.50;;;97.35;;
44987;SDS011;35735;52.226;21.254;2024-03-08T01:44:08;208.27;;;98.40;;
44987;SDS011;35735;52.226;21.254;2024-03-08T01:49:29;213.30;;;101.53;;
44987;SDS011;35735;52.226;21.254;2024-03-08T01:54:50;224.10;;;99.28;;
44987;SDS011;35735;52.226;21.254;2024-03-08T02:00:11;212.90;;;98.43;;
44987;SDS011;35735;52.226;21.254;2024-03-08T02:05:32;220.40;;;98.70;;
44987;SDS011;35735;52.226;21.254;2024-03-08T02:10:53;222.93;;;97.22;;
44987;SDS011;35735;52.226;21.254;2024-03-08T02:16:20;210.65;;;96.80;;
44987;SDS011;35735;52.226;21.254;2024-03-08T02:21:42;212.68;;;94.60;;
44987;SDS011;35735;52.226;21.254;2024-03-08T02:27:03;204.18;;;93.00;;
44987;SDS011;35735;52.226;21.254;2024-03-08T02:32:25;201.23;;;92.72;;
44987;SDS011;35735;52.226;21.254;2024-03-08T02:37:45;203.45;;;90.65;;
44987;SDS011;35735;52.226;21.254;2024-03-08T02:43:06;192.82;;;88.30;;
44987;SDS011;35735;52.226;21.254;2024-03-08T02:48:27;183.25;;;87.03;;
44987;SDS011;35735;52.226;21.254;2024-03-08T02:53:48;182.53;;;85.53;;
44987;SDS011;35735;52.226;21.254;2024-03-08T02:59:09;173.55;;;83.78;;
44987;SDS011;35735;52.226;21.254;2024-03-08T03:04:30;168.62;;;79.75;;
44987;SDS011;35735;52.226;21.254;2024-03-08T03:09:51;168.35;;;78.95;;
44987;SDS011;35735;52.226;21.254;2024-03-08T03:15:12;162.30;;;77.87;;
44987;SDS011;35735;52.226;21.254;2024-03-08T03:20:33;163.75;;;77.37;;
44987;SDS011;35735;52.226;21.254;2024-03-08T03:25:54;160.25;;;76.68;;
44987;SDS011;35735;52.226;21.254;2024-03-08T03:31:15;153.40;;;75.97;;
44987;SDS011;35735;52.226;21.254;2024-03-08T03:36:36;166.57;;;75.30;;
44987;SDS011;35735;52.226;21.254;2024-03-08T03:41:57;162.27;;;74.93;;
44987;SDS011;35735;52.226;21.254;2024-03-08T03:47:18;164.35;;;75.97;;
44987;SDS011;35735;52.226;21.254;2024-03-08T03:52:39;157.85;;;75.50;;
44987;SDS011;35735;52.226;21.254;2024-03-08T03:58:00;159.65;;;75.15;;
44987;SDS011;35735;52.226;21.254;2024-03-08T04:03:21;155.73;;;73.85;;
44987;SDS011;35735;52.226;21.254;2024-03-08T04:08:42;160.33;;;75.90;;
44987;SDS011;35735;52.226;21.254;2024-03-08T04:14:03;159.85;;;75.55;;
44987;SDS011;35735;52.226;21.254;2024-03-08T04:19:24;151.50;;;73.37;;
44987;SDS011;35735;52.226;21.254;2024-03-08T04:24:45;155.75;;;73.60;;
44987;SDS011;35735;52.226;21.254;2024-03-08T04:30:06;147.83;;;72.73;;
44987;SDS011;35735;52.226;21.254;2024-03-08T04:35:27;155.73;;;74.20;;
44987;SDS011;35735;52.226;21.254;2024-03-08T04:40:49;158.50;;;75.77;;
44987;SDS011;35735;52.226;21.254;2024-03-08T04:46:10;153.95;;;73.30;;
44987;SDS011;35735;52.226;21.254;2024-03-08T04:51:31;158.63;;;74.72;;
44987;SDS011;35735;52.226;21.254;2024-03-08T04:56:51;156.23;;;73.80;;
44987;SDS011;35735;52.226;21.254;2024-03-08T05:02:12;170.02;;;76.35;;
44987;SDS011;35735;52.226;21.254;2024-03-08T05:07:33;166.32;;;77.68;;
44987;SDS011;35735;52.226;21.254;2024-03-08T05:12:54;163.95;;;77.95;;
44987;SDS011;35735;52.226;21.254;2024-03-08T05:18:15;172.52;;;80.03;;
44987;SDS011;35735;52.226;21.254;2024-03-08T05:23:36;175.87;;;78.60;;
44987;SDS011;35735;52.226;21.254;2024-03-08T05:28:57;182.60;;;81.43;;
44987;SDS011;35735;52.226;21.254;2024-03-08T05:34:18;173.80;;;79.07;;
44987;SDS011;35735;52.226;21.254;2024-03-08T05:39:39;174.20;;;81.03;;
44987;SDS011;35735;52.226;21.254;2024-03-08T05:45:00;180.10;;;81.70;;
44987;SDS011;35735;52.226;21.254;2024-03-08T05:50:21;175.20;;;83.28;;
44987;SDS011;35735;52.226;21.254;2024-03-08T05:55:42;173.57;;;82.45;;
44987;SDS011;35735;52.226;21.254;2024-03-08T06:01:03;171.35;;;83.35;;
44987;SDS011;35735;52.226;21.254;2024-03-08T06:06:24;164.15;;;77.25;;
44987;SDS011;35735;52.226;21.254;2024-03-08T06:11:46;161.80;;;74.97;;
44987;SDS011;35735;52.226;21.254;2024-03-08T06:17:06;167.18;;;79.05;;
44987;SDS011;35735;52.226;21.254;2024-03-08T06:22:27;221.20;;;110.28;;
44987;SDS011;35735;52.226;21.254;2024-03-08T06:27:48;193.62;;;99.32;;
44987;SDS011;35735;52.226;21.254;2024-03-08T06:33:09;146.10;;;78.77;;
44987;SDS011;35735;52.226;21.254;2024-03-08T06:38:30;140.62;;;77.68;;
44987;SDS011;35735;52.226;21.254;2024-03-08T06:43:51;147.60;;;79.28;;
44987;SDS011;35735;52.226;21.254;2024-03-08T06:49:12;149.00;;;77.40;;
44987;SDS011;35735;52.226;21.254;2024-03-08T06:54:32;148.13;;;75.53;;
44987;SDS011;35735;52.226;21.254;2024-03-08T06:59:53;158.60;;;84.47;;
44987;SDS011;35735;52.226;21.254;2024-03-08T07:05:15;153.57;;;82.83;;
44987;SDS011;35735;52.226;21.254;2024-03-08T07:10:35;161.60;;;86.28;;
44987;SDS011;35735;52.226;21.254;2024-03-08T07:15:56;126.15;;;71.90;;
44987;SDS011;35735;52.226;21.254;2024-03-08T07:21:17;125.37;;;66.17;;
44987;SDS011;35735;52.226;21.254;2024-03-08T07:26:38;109.90;;;61.47;;
44987;SDS011;35735;52.226;21.254;2024-03-08T07:31:59;104.50;;;58.03;;
44987;SDS011;35735;52.226;21.254;2024-03-08T07:37:20;103.90;;;58.00;;
44987;SDS011;35735;52.226;21.254;2024-03-08T07:42:41;90.35;;;51.65;;
44987;SDS011;35735;52.226;21.254;2024-03-08T07:48:02;87.95;;;51.33;;
44987;SDS011;35735;52.226;21.254;2024-03-08T07:53:23;79.78;;;45.15;;
44987;SDS011;35735;52.226;21.254;2024-03-08T07:58:44;78.30;;;43.28;;
44987;SDS011;35735;52.226;21.254;2024-03-08T08:04:05;72.65;;;41.95;;
44987;SDS011;35735;52.226;21.254;2024-03-08T08:09:26;71.65;;;42.08;;
44987;SDS011;35735;52.226;21.254;2024-03-08T08:14:47;65.22;;;38.50;;
44987;SDS011;35735;52.226;21.254;2024-03-08T08:20:08;65.87;;;37.87;;
44987;SDS011;35735;52.226;21.254;2024-03-08T08:25:31;60.70;;;37.30;;
44987;SDS011;35735;52.226;21.254;2024-03-08T08:30:51;59.80;;;33.10;;
44987;SDS011;35735;52.226;21.254;2024-03-08T08:36:12;50.50;;;28.20;;
44987;SDS011;35735;52.226;21.254;2024-03-08T08:41:33;50.05;;;29.75;;
44987;SDS011;35735;52.226;21.254;2024-03-08T08:46:54;46.90;;;27.62;;
44987;SDS011;35735;52.226;21.254;2024-03-08T08:52:15;40.25;;;22.58;;
44987;SDS011;35735;52.226;21.254;2024-03-08T08:57:36;37.78;;;24.58;;
44987;SDS011;35735;52.226;21.254;2024-03-08T09:02:57;33.35;;;20.35;;
44987;SDS011;35735;52.226;21.254;2024-03-08T09:08:17;38.78;;;22.73;;
44987;SDS011;35735;52.226;21.254;2024-03-08T09:13:38;33.33;;;21.00;;
44987;SDS011;35735;52.226;21.254;2024-03-08T09:18:59;37.97;;;21.40;;
44987;SDS011;35735;52.226;21.254;2024-03-08T09:24:20;31.23;;;20.80;;
44987;SDS011;35735;52.226;21.254;2024-03-08T09:29:41;30.60;;;18.42;;
44987;SDS011;35735;52.226;21.254;2024-03-08T09:35:02;26.98;;;16.70;;
44987;SDS011;35735;52.226;21.254;2024-03-08T09:40:23;25.52;;;17.45;;
44987;SDS011;35735;52.226;21.254;2024-03-08T09:45:45;24.95;;;16.25;;
44987;SDS011;35735;52.226;21.254;2024-03-08T09:51:09;25.40;;;16.92;;
44987;SDS011;35735;52.226;21.254;2024-03-08T09:56:32;26.27;;;16.12;;
44987;SDS011;35735;52.226;21.254;2024-03-08T10:01:53;22.00;;;15.52;;
44987;SDS011;35735;52.226;21.254;2024-03-08T10:07:15;22.85;;;15.05;;
44987;SDS011;35735;52.226;21.254;2024-03-08T10:12:35;27.20;;;17.10;;
44987;SDS011;35735;52.226;21.254;2024-03-08T10:17:56;25.15;;;15.15;;
44987;SDS011;35735;52.226;21.254;2024-03-08T10:23:17;24.17;;;15.73;;
44987;SDS011;35735;52.226;21.254;2024-03-08T10:28:38;31.00;;;15.80;;
44987;SDS011;35735;52.226;21.254;2024-03-08T10:33:59;27.23;;;15.30;;
44987;SDS011;35735;52.226;21.254;2024-03-08T10:39:23;24.50;;;15.65;;
44987;SDS011;35735;52.226;21.254;2024-03-08T10:45:01;24.50;;;15.90;;
44987;SDS011;35735;52.226;21.254;2024-03-08T10:50:33;19.80;;;14.18;;
44987;SDS011;35735;52.226;21.254;2024-03-08T10:55:58;21.43;;;15.00;;
44987;SDS011;35735;52.226;21.254;2024-03-08T11:01:19;27.90;;;16.17;;
44987;SDS011;35735;52.226;21.254;2024-03-08T11:06:42;25.48;;;15.07;;
44987;SDS011;35735;52.226;21.254;2024-03-08T11:12:18;22.37;;;14.87;;
44987;SDS011;35735;52.226;21.254;2024-03-08T11:17:44;23.83;;;14.77;;
44987;SDS011;35735;52.226;21.254;2024-03-08T11:23:07;20.23;;;13.77;;
44987;SDS011;35735;52.226;21.254;2024-03-08T11:28:29;20.17;;;13.70;;
44987;SDS011;35735;52.226;21.254;2024-03-08T11:33:51;22.83;;;13.32;;
44987;SDS011;35735;52.226;21.254;2024-03-08T11:39:12;20.55;;;13.13;;
44987;SDS011;35735;52.226;21.254;2024-03-08T11:44:33;19.52;;;12.77;;
44987;SDS011;35735;52.226;21.254;2024-03-08T11:49:54;19.30;;;12.30;;
44987;SDS011;35735;52.226;21.254;2024-03-08T11:55:15;21.37;;;12.90;;
44987;SDS011;35735;52.226;21.254;2024-03-08T12:00:36;19.25;;;11.93;;
44987;SDS011;35735;52.226;21.254;2024-03-08T12:05:57;22.90;;;13.70;;
44987;SDS011;35735;52.226;21.254;2024-03-08T12:11:18;18.02;;;12.37;;
44987;SDS011;35735;52.226;21.254;2024-03-08T12:16:39;17.65;;;12.45;;
44987;SDS011;35735;52.226;21.254;2024-03-08T12:22:07;20.55;;;12.37;;
44987;SDS011;35735;52.226;21.254;2024-03-08T12:27:29;18.30;;;12.90;;
44987;SDS011;35735;52.226;21.254;2024-03-08T12:32:54;27.65;;;13.35;;
44987;SDS011;35735;52.226;21.254;2024-03-08T12:38:20;18.27;;;12.70;;
44987;SDS011;35735;52.226;21.254;2024-03-08T12:43:44;19.50;;;11.75;;
44987;SDS011;35735;52.226;21.254;2024-03-08T12:49:09;19.67;;;12.33;;
44987;SDS011;35735;52.226;21.254;2024-03-08T12:54:30;23.58;;;12.90;;
44987;SDS011;35735;52.226;21.254;2024-03-08T12:59:50;16.37;;;11.45;;
44987;SDS011;35735;52.226;21.254;2024-03-08T13:05:11;17.80;;;11.88;;
44987;SDS011;35735;52.226;21.254;2024-03-08T13:10:32;18.17;;;11.70;;
44987;SDS011;35735;52.226;21.254;2024-03-08T13:15:53;19.87;;;11.82;;
44987;SDS011;35735;52.226;21.254;2024-03-08T13:21:14;18.13;;;11.63;;
44987;SDS011;35735;52.226;21.254;2024-03-08T13:26:35;16.70;;;11.05;;
44987;SDS011;35735;52.226;21.254;2024-03-08T13:31:56;19.60;;;12.07;;
44987;SDS011;35735;52.226;21.254;2024-03-08T13:37:17;17.83;;;12.17;;
44987;SDS011;35735;52.226;21.254;2024-03-08T13:42:41;19.70;;;12.23;;
44987;SDS011;35735;52.226;21.254;2024-03-08T13:48:02;24.45;;;13.48;;
44987;SDS011;35735;52.226;21.254;2024-03-08T13:53:24;24.48;;;13.25;;
44987;SDS011;35735;52.226;21.254;2024-03-08T13:58:45;29.25;;;13.20;;
44987;SDS011;35735;52.226;21.254;2024-03-08T14:04:06;16.02;;;12.25;;
44987;SDS011;35735;52.226;21.254;2024-03-08T14:09:27;20.15;;;12.90;;
44987;SDS011;35735;52.226;21.254;2024-03-08T14:14:47;20.52;;;12.77;;
44987;SDS011;35735;52.226;21.254;2024-03-08T14:20:08;24.02;;;14.10;;
44987;SDS011;35735;52.226;21.254;2024-03-08T14:25:30;25.23;;;14.68;;
44987;SDS011;35735;52.226;21.254;2024-03-08T14:30:50;18.77;;;12.85;;
44987;SDS011;35735;52.226;21.254;2024-03-08T14:36:11;20.77;;;13.48;;
44987;SDS011;35735;52.226;21.254;2024-03-08T14:41:32;28.50;;;13.23;;
44987;SDS011;35735;52.226;21.254;2024-03-08T14:46:53;27.57;;;12.70;;
44987;SDS011;35735;52.226;21.254;2024-03-08T14:52:16;23.23;;;13.03;;
44987;SDS011;35735;52.226;21.254;2024-03-08T14:57:37;19.55;;;12.18;;
44987;SDS011;35735;52.226;21.254;2024-03-08T15:02:57;20.33;;;12.50;;
44987;SDS011;35735;52.226;21.254;2024-03-08T15:08:19;23.58;;;13.65;;
44987;SDS011;35735;52.226;21.254;2024-03-08T15:13:40;17.62;;;11.73;;
44987;SDS011;35735;52.226;21.254;2024-03-08T15:19:01;18.93;;;12.00;;
44987;SDS011;35735;52.226;21.254;2024-03-08T15:24:22;19.10;;;12.52;;
44987;SDS011;35735;52.226;21.254;2024-03-08T15:29:43;17.43;;;11.40;;
44987;SDS011;35735;52.226;21.254;2024-03-08T15:35:04;16.05;;;10.65;;
44987;SDS011;35735;52.226;21.254;2024-03-08T15:40:25;17.17;;;10.07;;
44987;SDS011;35735;52.226;21.254;2024-03-08T15:45:45;18.08;;;10.48;;
44987;SDS011;35735;52.226;21.254;2024-03-08T15:51:06;18.40;;;10.55;;
44987;SDS011;35735;52.226;21.254;2024-03-08T15:56:28;20.12;;;12.63;;
44987;SDS011;35735;52.226;21.254;2024-03-08T16:01:49;32.75;;;20.37;;
44987;SDS011;35735;52.226;21.254;2024-03-08T16:07:10;24.10;;;13.80;;
44987;SDS011;35735;52.226;21.254;2024-03-08T16:12:31;22.87;;;14.38;;
44987;SDS011;35735;52.226;21.254;2024-03-08T16:17:58;23.73;;;14.90;;
44987;SDS011;35735;52.226;21.254;2024-03-08T16:23:22;26.20;;;14.27;;
44987;SDS011;35735;52.226;21.254;2024-03-08T16:28:44;29.08;;;12.95;;
44987;SDS011;35735;52.226;21.254;2024-03-08T16:34:05;32.47;;;13.50;;
44987;SDS011;35735;52.226;21.254;2024-03-08T16:39:26;21.65;;;11.63;;
44987;SDS011;35735;52.226;21.254;2024-03-08T16:44:47;26.85;;;11.85;;
44987;SDS011;35735;52.226;21.254;2024-03-08T16:50:08;40.67;;;13.85;;
44987;SDS011;35735;52.226;21.254;2024-03-08T16:55:30;42.95;;;19.85;;
44987;SDS011;35735;52.226;21.254;2024-03-08T17:00:51;47.20;;;23.55;;
44987;SDS011;35735;52.226;21.254;2024-03-08T17:06:11;60.07;;;21.97;;
44987;SDS011;35735;52.226;21.254;2024-03-08T17:11:32;45.80;;;19.25;;
44987;SDS011;35735;52.226;21.254;2024-03-08T17:16:53;46.65;;;19.15;;
44987;SDS011;35735;52.226;21.254;2024-03-08T17:22:14;46.27;;;17.70;;
44987;SDS011;35735;52.226;21.254;2024-03-08T17:27:35;54.03;;;18.48;;
44987;SDS011;35735;52.226;21.254;2024-03-08T17:32:57;55.65;;;27.30;;
44987;SDS011;35735;52.226;21.254;2024-03-08T17:38:19;72.37;;;36.80;;
44987;SDS011;35735;52.226;21.254;2024-03-08T17:43:40;72.25;;;33.40;;
44987;SDS011;35735;52.226;21.254;2024-03-08T17:49:01;71.53;;;38.47;;
44987;SDS011;35735;52.226;21.254;2024-03-08T17:54:22;65.37;;;36.70;;
44987;SDS011;35735;52.226;21.254;2024-03-08T17:59:43;80.10;;;43.60;;
44987;SDS011;35735;52.226;21.254;2024-03-08T18:05:04;81.05;;;44.33;;
44987;SDS011;35735;52.226;21.254;2024-03-08T18:10:26;101.55;;;50.55;;
44987;SDS011;35735;52.226;21.254;2024-03-08T18:15:48;109.65;;;50.70;;
44987;SDS011;35735;52.226;21.254;2024-03-08T18:21:08;98.23;;;46.27;;
44987;SDS011;35735;52.226;21.254;2024-03-08T18:26:29;85.22;;;38.88;;
44987;SDS011;35735;52.226;21.254;2024-03-08T18:31:51;65.35;;;31.42;;
44987;SDS011;35735;52.226;21.254;2024-03-08T18:37:12;61.65;;;27.67;;
44987;SDS011;35735;52.226;21.254;2024-03-08T18:42:32;68.40;;;28.90;;
44987;SDS011;35735;52.226;21.254;2024-03-08T18:47:54;66.15;;;30.65;;
44987;SDS011;35735;52.226;21.254;2024-03-08T18:53:15;82.43;;;36.33;;
44987;SDS011;35735;52.226;21.254;2024-03-08T18:58:36;81.93;;;40.22;;
44987;SDS011;35735;52.226;21.254;2024-03-08T19:03:57;103.93;;;45.35;;
44987;SDS011;35735;52.226;21.254;2024-03-08T19:09:18;108.03;;;45.97;;
44987;SDS011;35735;52.226;21.254;2024-03-08T19:14:39;116.93;;;52.55;;
44987;SDS011;35735;52.226;21.254;2024-03-08T19:20:00;106.50;;;47.40;;
44987;SDS011;35735;52.226;21.254;2024-03-08T19:25:21;88.93;;;41.28;;
44987;SDS011;35735;52.226;21.254;2024-03-08T19:30:43;116.15;;;57.67;;
44987;SDS011;35735;52.226;21.254;2024-03-08T19:36:04;126.43;;;59.38;;
44987;SDS011;35735;52.226;21.254;2024-03-08T19:41:25;145.25;;;66.18;;
44987;SDS011;35735;52.226;21.254;2024-03-08T19:46:46;139.48;;;63.95;;
44987;SDS011;35735;52.226;21.254;2024-03-08T19:52:07;156.00;;;67.68;;
44987;SDS011;35735;52.226;21.254;2024-03-08T19:57:28;155.63;;;72.35;;
44987;SDS011;35735;52.226;21.254;2024-03-08T20:02:48;198.23;;;85.93;;
44987;SDS011;35735;52.226;21.254;2024-03-08T20:08:09;164.27;;;76.40;;
44987;SDS011;35735;52.226;21.254;2024-03-08T20:13:30;141.87;;;67.90;;
44987;SDS011;35735;52.226;21.254;2024-03-08T20:18:51;145.18;;;66.18;;
44987;SDS011;35735;52.226;21.254;2024-03-08T20:24:12;124.57;;;58.97;;
44987;SDS011;35735;52.226;21.254;2024-03-08T20:29:33;120.20;;;58.53;;
44987;SDS011;35735;52.226;21.254;2024-03-08T20:34:54;124.35;;;54.95;;
44987;SDS011;35735;52.226;21.254;2024-03-08T20:40:14;123.33;;;55.73;;
44987;SDS011;35735;52.226;21.254;2024-03-08T20:45:36;113.93;;;56.28;;
44987;SDS011;35735;52.226;21.254;2024-03-08T20:50:57;119.70;;;56.22;;
44987;SDS011;35735;52.226;21.254;2024-03-08T20:56:18;119.50;;;63.07;;
44987;SDS011;35735;52.226;21.254;2024-03-08T21:01:39;124.90;;;62.97;;
44987;SDS011;35735;52.226;21.254;2024-03-08T21:07:00;125.00;;;59.97;;
44987;SDS011;35735;52.226;21.254;2024-03-08T21:12:21;167.30;;;75.70;;
44987;SDS011;35735;52.226;21.254;2024-03-08T21:17:42;290.20;;;119.40;;
44987;SDS011;35735;52.226;21.254;2024-03-08T21:23:02;249.57;;;103.47;;
44987;SDS011;35735;52.226;21.254;2024-03-08T21:28:23;235.55;;;102.47;;
44987;SDS011;35735;52.226;21.254;2024-03-08T21:33:44;242.87;;;101.82;;
44987;SDS011;35735;52.226;21.254;2024-03-08T21:39:05;222.43;;;98.97;;
44987;SDS011;35735;52.226;21.254;2024-03-08T21:44:26;216.65;;;95.70;;
44987;SDS011;35735;52.226;21.254;2024-03-08T21:49:47;200.57;;;91.12;;
44987;SDS011;35735;52.226;21.254;2024-03-08T21:55:08;205.00;;;95.28;;
44987;SDS011;35735;52.226;21.254;2024-03-08T22:00:29;221.82;;;106.68;;
44987;SDS011;35735;52.226;21.254;2024-03-08T22:05:50;212.48;;;101.40;;
44987;SDS011;35735;52.226;21.254;2024-03-08T22:11:11;206.27;;;98.13;;
44987;SDS011;35735;52.226;21.254;2024-03-08T22:16:32;217.87;;;105.60;;
44987;SDS011;35735;52.226;21.254;2024-03-08T22:21:53;254.93;;;117.03;;
44987;SDS011;35735;52.226;21.254;2024-03-08T22:27:13;239.13;;;110.47;;
44987;SDS011;35735;52.226;21.254;2024-03-08T22:32:35;242.65;;;112.68;;
44987;SDS011;35735;52.226;21.254;2024-03-08T22:37:56;236.82;;;111.43;;
44987;SDS011;35735;52.226;21.254;2024-03-08T22:43:17;239.40;;;111.40;;
44987;SDS011;35735;52.226;21.254;2024-03-08T22:48:38;226.50;;;105.25;;
44987;SDS011;35735;52.226;21.254;2024-03-08T22:53:59;219.82;;;103.35;;
44987;SDS011;35735;52.226;21.254;2024-03-08T22:59:20;222.23;;;103.72;;
44987;SDS011;35735;52.226;21.254;2024-03-08T23:04:41;207.60;;;98.12;;
44987;SDS011;35735;52.226;21.254;2024-03-08T23:10:02;197.30;;;93.87;;
44987;SDS011;35735;52.226;21.254;2024-03-08T23:15:23;194.07;;;94.27;;
44987;SDS011;35735;52.226;21.254;2024-03-08T23:20:44;179.98;;;88.28;;
44987;SDS011;35735;52.226;21.254;2024-03-08T23:26:06;177.95;;;86.12;;
44987;SDS011;35735;52.226;21.254;2024-03-08T23:31:27;176.23;;;87.00;;
44987;SDS011;35735;52.226;21.254;2024-03-08T23:36:48;171.30;;;84.23;;
44987;SDS011;35735;52.226;21.254;2024-03-08T23:42:08;175.75;;;84.53;;
44987;SDS011;35735;52.226;21.254;2024-03-08T23:47:29;167.27;;;81.57;;
44987;SDS011;35735;52.226;21.254;2024-03-08T23:52:51;166.82;;;81.57;;
44987;SDS011;35735;52.226;21.254;2024-03-08T23:58:12;172.40;;;81.68;;
